メインページ
METAR-TAF:

METAR-TAF

空港 :

ヤズド, イラン

緯度: 31-54N, 経度: 054-24E, 海抜: 1238m

現時点の気象観測

当レポートは1時間4分前の09:00(UTC)に作成
東/北東の風 2kt
気温 14°C
湿度 36%
気圧 1027 hPa
視程10km以上
1,500メートル以下は雲なし、積乱雲なし

METAR: OIYY 190900Z 07002KT CAVOK 14/M01 Q1027

時間: 13:34 (10:04 UTC)


TAF: 見つかりません

4,000以上の空港の気象観測と天気予報(METAR報とTAF報)

利用可能な観測所は地図上に黄色い丸と赤い丸で示す。

丸の上にカーソルを重ねると観測所名を参照できる。

次にクリックすると気象観測と天気予報を参照できる。

マップの切り替え:黒色「×」印の緑ボタンをクリックして拡大、「-」印の緑ボタンをクリックして縮小、緑色の三角印をクリックして隣りの地図に切り替え


METAR-TAF: